sensor_id;sensor_type;location;lat;lon;timestamp;P1;durP1;ratioP1;P2;durP2;ratioP2
6679;SDS011;3376;42.664;23.346;2023-11-19T00:00:27;2.77;;;2.67;;
6679;SDS011;3376;42.664;23.346;2023-11-19T00:02:54;2.57;;;2.47;;
6679;SDS011;3376;42.664;23.346;2023-11-19T00:05:22;3.43;;;3.23;;
6679;SDS011;3376;42.664;23.346;2023-11-19T00:07:49;2.10;;;2.10;;
6679;SDS011;3376;42.664;23.346;2023-11-19T00:10:16;2.50;;;2.30;;
6679;SDS011;3376;42.664;23.346;2023-11-19T00:12:44;2.40;;;2.30;;
6679;SDS011;3376;42.664;23.346;2023-11-19T00:15:12;1.93;;;1.93;;
6679;SDS011;3376;42.664;23.346;2023-11-19T00:17:39;2.60;;;2.50;;
6679;SDS011;3376;42.664;23.346;2023-11-19T00:20:10;2.73;;;2.63;;
6679;SDS011;3376;42.664;23.346;2023-11-19T00:22:38;2.73;;;2.63;;
6679;SDS011;3376;42.664;23.346;2023-11-19T00:25:05;2.27;;;2.17;;
6679;SDS011;3376;42.664;23.346;2023-11-19T00:27:33;2.07;;;2.07;;
6679;SDS011;3376;42.664;23.346;2023-11-19T00:30:00;2.33;;;2.23;;
6679;SDS011;3376;42.664;23.346;2023-11-19T00:32:30;2.47;;;2.37;;
6679;SDS011;3376;42.664;23.346;2023-11-19T00:34:57;2.53;;;2.43;;
6679;SDS011;3376;42.664;23.346;2023-11-19T00:37:24;2.50;;;2.40;;
6679;SDS011;3376;42.664;23.346;2023-11-19T00:39:52;2.30;;;2.20;;
6679;SDS011;3376;42.664;23.346;2023-11-19T00:42:21;2.60;;;2.50;;
6679;SDS011;3376;42.664;23.346;2023-11-19T00:44:49;2.27;;;2.27;;
6679;SDS011;3376;42.664;23.346;2023-11-19T00:47:16;2.03;;;2.03;;
6679;SDS011;3376;42.664;23.346;2023-11-19T00:49:45;2.40;;;2.30;;
6679;SDS011;3376;42.664;23.346;2023-11-19T00:52:13;2.37;;;2.27;;
6679;SDS011;3376;42.664;23.346;2023-11-19T00:54:40;2.77;;;2.67;;
6679;SDS011;3376;42.664;23.346;2023-11-19T00:57:08;2.37;;;2.27;;
6679;SDS011;3376;42.664;23.346;2023-11-19T00:59:35;2.43;;;2.33;;
6679;SDS011;3376;42.664;23.346;2023-11-19T01:02:02;2.53;;;2.43;;
6679;SDS011;3376;42.664;23.346;2023-11-19T01:04:33;2.90;;;2.80;;
6679;SDS011;3376;42.664;23.346;2023-11-19T01:07:00;2.37;;;2.27;;
6679;SDS011;3376;42.664;23.346;2023-11-19T01:09:29;1.73;;;1.73;;
6679;SDS011;3376;42.664;23.346;2023-11-19T01:11:54;2.40;;;2.30;;
6679;SDS011;3376;42.664;23.346;2023-11-19T01:14:23;2.40;;;2.30;;
6679;SDS011;3376;42.664;23.346;2023-11-19T01:16:50;2.27;;;2.17;;
6679;SDS011;3376;42.664;23.346;2023-11-19T01:19:19;2.17;;;2.07;;
6679;SDS011;3376;42.664;23.346;2023-11-19T01:21:46;2.20;;;2.10;;
6679;SDS011;3376;42.664;23.346;2023-11-19T01:24:13;2.23;;;2.13;;
6679;SDS011;3376;42.664;23.346;2023-11-19T01:26:40;2.90;;;2.80;;
6679;SDS011;3376;42.664;23.346;2023-11-19T01:29:10;2.20;;;2.13;;
6679;SDS011;3376;42.664;23.346;2023-11-19T01:31:40;2.67;;;2.40;;
6679;SDS011;3376;42.664;23.346;2023-11-19T01:34:07;2.37;;;2.27;;
6679;SDS011;3376;42.664;23.346;2023-11-19T01:36:34;2.70;;;2.60;;
6679;SDS011;3376;42.664;23.346;2023-11-19T01:39:01;2.60;;;2.40;;
6679;SDS011;3376;42.664;23.346;2023-11-19T01:41:29;2.63;;;2.47;;
6679;SDS011;3376;42.664;23.346;2023-11-19T01:43:56;2.10;;;2.00;;
6679;SDS011;3376;42.664;23.346;2023-11-19T01:46:24;2.33;;;2.13;;
6679;SDS011;3376;42.664;23.346;2023-11-19T01:48:53;2.03;;;1.97;;
6679;SDS011;3376;42.664;23.346;2023-11-19T01:51:20;2.23;;;2.13;;
6679;SDS011;3376;42.664;23.346;2023-11-19T01:53:48;2.33;;;2.23;;
6679;SDS011;3376;42.664;23.346;2023-11-19T01:56:16;2.50;;;2.40;;
6679;SDS011;3376;42.664;23.346;2023-11-19T01:58:43;2.20;;;2.20;;
6679;SDS011;3376;42.664;23.346;2023-11-19T02:01:12;1.87;;;1.87;;
6679;SDS011;3376;42.664;23.346;2023-11-19T02:03:39;2.30;;;2.20;;
6679;SDS011;3376;42.664;23.346;2023-11-19T02:06:08;2.10;;;2.10;;
6679;SDS011;3376;42.664;23.346;2023-11-19T02:08:35;2.33;;;2.23;;
6679;SDS011;3376;42.664;23.346;2023-11-19T02:11:04;2.43;;;2.30;;
6679;SDS011;3376;42.664;23.346;2023-11-19T02:13:32;2.13;;;2.03;;
6679;SDS011;3376;42.664;23.346;2023-11-19T02:16:01;1.97;;;1.90;;
6679;SDS011;3376;42.664;23.346;2023-11-19T02:18:28;1.97;;;1.87;;
6679;SDS011;3376;42.664;23.346;2023-11-19T02:20:55;1.57;;;1.57;;
6679;SDS011;3376;42.664;23.346;2023-11-19T02:23:25;2.37;;;2.27;;
6679;SDS011;3376;42.664;23.346;2023-11-19T02:25:59;2.40;;;2.30;;
6679;SDS011;3376;42.664;23.346;2023-11-19T02:28:32;2.00;;;2.00;;
6679;SDS011;3376;42.664;23.346;2023-11-19T02:30:59;1.93;;;1.83;;
6679;SDS011;3376;42.664;23.346;2023-11-19T02:33:26;1.70;;;1.70;;
6679;SDS011;3376;42.664;23.346;2023-11-19T02:35:54;2.43;;;2.33;;
6679;SDS011;3376;42.664;23.346;2023-11-19T02:38:21;2.40;;;2.30;;
6679;SDS011;3376;42.664;23.346;2023-11-19T02:40:48;1.93;;;1.83;;
6679;SDS011;3376;42.664;23.346;2023-11-19T02:43:15;4.10;;;1.90;;
6679;SDS011;3376;42.664;23.346;2023-11-19T02:45:44;2.23;;;2.20;;
6679;SDS011;3376;42.664;23.346;2023-11-19T02:48:11;1.63;;;1.63;;
6679;SDS011;3376;42.664;23.346;2023-11-19T02:50:39;2.43;;;2.33;;
6679;SDS011;3376;42.664;23.346;2023-11-19T02:53:06;2.33;;;2.23;;
6679;SDS011;3376;42.664;23.346;2023-11-19T02:55:33;2.30;;;2.20;;
6679;SDS011;3376;42.664;23.346;2023-11-19T02:58:03;2.40;;;2.30;;
6679;SDS011;3376;42.664;23.346;2023-11-19T03:00:35;2.10;;;2.03;;
6679;SDS011;3376;42.664;23.346;2023-11-19T03:03:08;1.90;;;1.90;;
6679;SDS011;3376;42.664;23.346;2023-11-19T03:05:43;2.33;;;2.23;;
6679;SDS011;3376;42.664;23.346;2023-11-19T03:08:10;2.13;;;2.03;;
6679;SDS011;3376;42.664;23.346;2023-11-19T03:10:37;2.47;;;2.27;;
6679;SDS011;3376;42.664;23.346;2023-11-19T03:13:04;2.10;;;2.00;;
6679;SDS011;3376;42.664;23.346;2023-11-19T03:15:32;1.77;;;1.77;;
6679;SDS011;3376;42.664;23.346;2023-11-19T03:17:59;2.20;;;2.10;;
6679;SDS011;3376;42.664;23.346;2023-11-19T03:20:28;2.00;;;1.90;;
6679;SDS011;3376;42.664;23.346;2023-11-19T03:22:55;1.90;;;1.90;;
6679;SDS011;3376;42.664;23.346;2023-11-19T03:25:24;2.13;;;2.03;;
6679;SDS011;3376;42.664;23.346;2023-11-19T03:27:52;1.90;;;1.80;;
6679;SDS011;3376;42.664;23.346;2023-11-19T03:30:19;2.30;;;2.20;;
6679;SDS011;3376;42.664;23.346;2023-11-19T03:32:46;2.33;;;2.23;;
6679;SDS011;3376;42.664;23.346;2023-11-19T03:35:13;2.17;;;2.07;;
6679;SDS011;3376;42.664;23.346;2023-11-19T03:37:41;2.20;;;2.10;;
6679;SDS011;3376;42.664;23.346;2023-11-19T03:40:09;2.57;;;1.97;;
6679;SDS011;3376;42.664;23.346;2023-11-19T03:42:37;2.33;;;2.27;;
6679;SDS011;3376;42.664;23.346;2023-11-19T03:45:05;1.93;;;1.93;;
6679;SDS011;3376;42.664;23.346;2023-11-19T03:47:33;1.97;;;1.97;;
6679;SDS011;3376;42.664;23.346;2023-11-19T03:50:00;2.03;;;1.93;;
6679;SDS011;3376;42.664;23.346;2023-11-19T03:52:27;2.50;;;2.40;;
6679;SDS011;3376;42.664;23.346;2023-11-19T03:54:56;2.33;;;2.33;;
6679;SDS011;3376;42.664;23.346;2023-11-19T03:57:23;2.30;;;2.20;;
6679;SDS011;3376;42.664;23.346;2023-11-19T03:59:50;2.20;;;2.10;;
6679;SDS011;3376;42.664;23.346;2023-11-19T04:02:17;1.70;;;1.70;;
6679;SDS011;3376;42.664;23.346;2023-11-19T04:04:44;2.70;;;2.60;;
6679;SDS011;3376;42.664;23.346;2023-11-19T04:07:11;2.40;;;2.30;;
6679;SDS011;3376;42.664;23.346;2023-11-19T04:09:38;2.80;;;2.70;;
6679;SDS011;3376;42.664;23.346;2023-11-19T04:12:06;2.13;;;2.03;;
6679;SDS011;3376;42.664;23.346;2023-11-19T04:14:34;2.63;;;2.53;;
6679;SDS011;3376;42.664;23.346;2023-11-19T04:17:02;2.40;;;2.30;;
6679;SDS011;3376;42.664;23.346;2023-11-19T04:19:30;2.30;;;2.20;;
6679;SDS011;3376;42.664;23.346;2023-11-19T04:21:57;2.10;;;2.03;;
6679;SDS011;3376;42.664;23.346;2023-11-19T04:24:24;2.40;;;2.30;;
6679;SDS011;3376;42.664;23.346;2023-11-19T04:26:51;2.27;;;2.17;;
6679;SDS011;3376;42.664;23.346;2023-11-19T04:29:20;2.77;;;2.67;;
6679;SDS011;3376;42.664;23.346;2023-11-19T04:31:46;2.30;;;2.20;;
6679;SDS011;3376;42.664;23.346;2023-11-19T04:34:13;2.07;;;2.07;;
6679;SDS011;3376;42.664;23.346;2023-11-19T04:36:40;2.20;;;2.10;;
6679;SDS011;3376;42.664;23.346;2023-11-19T04:39:08;2.37;;;2.27;;
6679;SDS011;3376;42.664;23.346;2023-11-19T04:41:44;2.20;;;2.10;;
6679;SDS011;3376;42.664;23.346;2023-11-19T04:44:12;2.53;;;2.33;;
6679;SDS011;3376;42.664;23.346;2023-11-19T04:46:42;2.30;;;2.17;;
6679;SDS011;3376;42.664;23.346;2023-11-19T04:49:09;2.33;;;2.33;;
6679;SDS011;3376;42.664;23.346;2023-11-19T04:51:37;2.30;;;2.10;;
6679;SDS011;3376;42.664;23.346;2023-11-19T04:54:05;2.07;;;2.03;;
6679;SDS011;3376;42.664;23.346;2023-11-19T04:56:33;2.60;;;2.50;;
6679;SDS011;3376;42.664;23.346;2023-11-19T04:59:00;2.97;;;2.07;;
6679;SDS011;3376;42.664;23.346;2023-11-19T05:01:27;2.10;;;2.00;;
6679;SDS011;3376;42.664;23.346;2023-11-19T05:03:55;2.20;;;2.00;;
6679;SDS011;3376;42.664;23.346;2023-11-19T05:06:25;2.40;;;2.30;;
6679;SDS011;3376;42.664;23.346;2023-11-19T05:08:53;2.43;;;2.33;;
6679;SDS011;3376;42.664;23.346;2023-11-19T05:11:20;2.03;;;1.83;;
6679;SDS011;3376;42.664;23.346;2023-11-19T05:13:47;2.50;;;2.40;;
6679;SDS011;3376;42.664;23.346;2023-11-19T05:16:15;2.57;;;2.47;;
6679;SDS011;3376;42.664;23.346;2023-11-19T05:18:42;2.10;;;2.10;;
6679;SDS011;3376;42.664;23.346;2023-11-19T05:21:11;2.33;;;2.23;;
6679;SDS011;3376;42.664;23.346;2023-11-19T05:23:38;2.00;;;2.00;;
6679;SDS011;3376;42.664;23.346;2023-11-19T05:26:07;1.93;;;1.83;;
6679;SDS011;3376;42.664;23.346;2023-11-19T05:28:34;2.07;;;2.00;;
6679;SDS011;3376;42.664;23.346;2023-11-19T05:31:01;2.13;;;2.03;;
6679;SDS011;3376;42.664;23.346;2023-11-19T05:33:27;2.33;;;2.23;;
6679;SDS011;3376;42.664;23.346;2023-11-19T05:35:54;2.20;;;2.10;;
6679;SDS011;3376;42.664;23.346;2023-11-19T05:38:23;2.70;;;2.60;;
6679;SDS011;3376;42.664;23.346;2023-11-19T05:40:50;1.90;;;1.90;;
6679;SDS011;3376;42.664;23.346;2023-11-19T05:43:17;1.40;;;1.40;;
6679;SDS011;3376;42.664;23.346;2023-11-19T05:45:44;2.13;;;2.00;;
6679;SDS011;3376;42.664;23.346;2023-11-19T05:48:10;2.07;;;1.97;;
6679;SDS011;3376;42.664;23.346;2023-11-19T05:50:38;2.47;;;2.37;;
6679;SDS011;3376;42.664;23.346;2023-11-19T05:53:05;2.90;;;2.80;;
6679;SDS011;3376;42.664;23.346;2023-11-19T05:55:36;2.87;;;2.77;;
6679;SDS011;3376;42.664;23.346;2023-11-19T05:58:10;2.50;;;2.40;;
6679;SDS011;3376;42.664;23.346;2023-11-19T06:00:37;2.23;;;2.03;;
6679;SDS011;3376;42.664;23.346;2023-11-19T06:03:05;2.33;;;2.23;;
6679;SDS011;3376;42.664;23.346;2023-11-19T06:05:31;3.03;;;2.93;;
6679;SDS011;3376;42.664;23.346;2023-11-19T06:07:58;2.87;;;2.77;;
6679;SDS011;3376;42.664;23.346;2023-11-19T06:10:25;2.50;;;2.40;;
6679;SDS011;3376;42.664;23.346;2023-11-19T06:12:57;2.53;;;2.43;;
6679;SDS011;3376;42.664;23.346;2023-11-19T06:15:24;3.37;;;2.63;;
6679;SDS011;3376;42.664;23.346;2023-11-19T06:17:51;3.17;;;3.07;;
6679;SDS011;3376;42.664;23.346;2023-11-19T06:20:19;3.13;;;3.03;;
6679;SDS011;3376;42.664;23.346;2023-11-19T06:22:46;2.80;;;2.70;;
6679;SDS011;3376;42.664;23.346;2023-11-19T06:25:13;2.70;;;2.60;;
6679;SDS011;3376;42.664;23.346;2023-11-19T06:27:41;2.60;;;2.40;;
6679;SDS011;3376;42.664;23.346;2023-11-19T06:30:10;3.20;;;3.00;;
6679;SDS011;3376;42.664;23.346;2023-11-19T06:32:37;3.27;;;3.10;;
6679;SDS011;3376;42.664;23.346;2023-11-19T06:35:05;2.70;;;2.60;;
6679;SDS011;3376;42.664;23.346;2023-11-19T06:37:32;2.77;;;2.57;;
6679;SDS011;3376;42.664;23.346;2023-11-19T06:39:59;2.43;;;2.33;;
6679;SDS011;3376;42.664;23.346;2023-11-19T06:42:26;2.40;;;2.30;;
6679;SDS011;3376;42.664;23.346;2023-11-19T06:44:53;2.13;;;2.03;;
6679;SDS011;3376;42.664;23.346;2023-11-19T06:47:24;2.50;;;2.40;;
6679;SDS011;3376;42.664;23.346;2023-11-19T06:49:52;2.90;;;2.70;;
6679;SDS011;3376;42.664;23.346;2023-11-19T06:52:19;2.77;;;2.67;;
6679;SDS011;3376;42.664;23.346;2023-11-19T06:54:45;2.60;;;2.50;;
6679;SDS011;3376;42.664;23.346;2023-11-19T06:57:12;3.10;;;3.00;;
6679;SDS011;3376;42.664;23.346;2023-11-19T06:59:39;3.53;;;3.40;;
6679;SDS011;3376;42.664;23.346;2023-11-19T07:02:06;3.03;;;2.93;;
6679;SDS011;3376;42.664;23.346;2023-11-19T07:04:35;2.87;;;2.77;;
6679;SDS011;3376;42.664;23.346;2023-11-19T07:07:02;3.00;;;2.80;;
6679;SDS011;3376;42.664;23.346;2023-11-19T07:09:30;2.30;;;2.20;;
6679;SDS011;3376;42.664;23.346;2023-11-19T07:11:57;2.47;;;2.37;;
6679;SDS011;3376;42.664;23.346;2023-11-19T07:14:25;2.47;;;2.37;;
6679;SDS011;3376;42.664;23.346;2023-11-19T07:16:52;2.93;;;2.83;;
6679;SDS011;3376;42.664;23.346;2023-11-19T07:19:18;2.97;;;2.80;;
6679;SDS011;3376;42.664;23.346;2023-11-19T07:21:47;2.57;;;2.47;;
6679;SDS011;3376;42.664;23.346;2023-11-19T07:24:14;2.70;;;2.60;;
6679;SDS011;3376;42.664;23.346;2023-11-19T07:26:42;2.70;;;2.60;;
6679;SDS011;3376;42.664;23.346;2023-11-19T07:29:09;2.50;;;2.40;;
6679;SDS011;3376;42.664;23.346;2023-11-19T07:31:36;2.20;;;2.10;;
6679;SDS011;3376;42.664;23.346;2023-11-19T07:34:03;3.30;;;3.20;;
6679;SDS011;3376;42.664;23.346;2023-11-19T07:36:31;3.23;;;3.03;;
6679;SDS011;3376;42.664;23.346;2023-11-19T07:39:00;2.30;;;2.20;;
6679;SDS011;3376;42.664;23.346;2023-11-19T07:41:27;2.73;;;2.63;;
6679;SDS011;3376;42.664;23.346;2023-11-19T07:43:54;3.03;;;2.93;;
6679;SDS011;3376;42.664;23.346;2023-11-19T07:46:21;3.20;;;3.00;;
6679;SDS011;3376;42.664;23.346;2023-11-19T07:48:48;2.80;;;2.70;;
6679;SDS011;3376;42.664;23.346;2023-11-19T07:51:15;3.07;;;2.97;;
6679;SDS011;3376;42.664;23.346;2023-11-19T07:53:42;3.33;;;3.23;;
6679;SDS011;3376;42.664;23.346;2023-11-19T07:56:10;3.27;;;3.17;;
6679;SDS011;3376;42.664;23.346;2023-11-19T07:58:37;3.57;;;3.33;;
6679;SDS011;3376;42.664;23.346;2023-11-19T08:01:04;2.60;;;2.50;;
6679;SDS011;3376;42.664;23.346;2023-11-19T08:03:31;2.60;;;2.50;;
6679;SDS011;3376;42.664;23.346;2023-11-19T08:05:59;2.50;;;2.40;;
6679;SDS011;3376;42.664;23.346;2023-11-19T08:08:26;2.80;;;2.70;;
6679;SDS011;3376;42.664;23.346;2023-11-19T08:10:54;3.00;;;2.80;;
6679;SDS011;3376;42.664;23.346;2023-11-19T08:13:23;2.37;;;2.27;;
6679;SDS011;3376;42.664;23.346;2023-11-19T08:15:50;3.27;;;3.07;;
6679;SDS011;3376;42.664;23.346;2023-11-19T08:18:17;2.53;;;2.43;;
6679;SDS011;3376;42.664;23.346;2023-11-19T08:20:44;2.93;;;2.73;;
6679;SDS011;3376;42.664;23.346;2023-11-19T08:23:14;3.30;;;3.20;;
6679;SDS011;3376;42.664;23.346;2023-11-19T08:25:41;2.90;;;2.80;;
6679;SDS011;3376;42.664;23.346;2023-11-19T08:28:07;3.10;;;3.00;;
6679;SDS011;3376;42.664;23.346;2023-11-19T08:30:36;3.53;;;3.43;;
6679;SDS011;3376;42.664;23.346;2023-11-19T08:33:01;4.03;;;3.83;;
6679;SDS011;3376;42.664;23.346;2023-11-19T08:35:28;3.93;;;3.63;;
6679;SDS011;3376;42.664;23.346;2023-11-19T08:37:56;3.90;;;3.70;;
6679;SDS011;3376;42.664;23.346;2023-11-19T08:40:24;3.20;;;3.10;;
6679;SDS011;3376;42.664;23.346;2023-11-19T08:42:51;3.37;;;3.17;;
6679;SDS011;3376;42.664;23.346;2023-11-19T08:45:18;2.67;;;2.57;;
6679;SDS011;3376;42.664;23.346;2023-11-19T08:47:46;2.33;;;2.23;;
6679;SDS011;3376;42.664;23.346;2023-11-19T08:50:13;2.50;;;2.40;;
6679;SDS011;3376;42.664;23.346;2023-11-19T08:52:40;3.27;;;3.17;;
6679;SDS011;3376;42.664;23.346;2023-11-19T08:55:07;3.43;;;3.13;;
6679;SDS011;3376;42.664;23.346;2023-11-19T08:57:35;2.90;;;2.80;;
6679;SDS011;3376;42.664;23.346;2023-11-19T09:00:02;3.17;;;3.07;;
6679;SDS011;3376;42.664;23.346;2023-11-19T09:02:29;2.80;;;2.70;;
6679;SDS011;3376;42.664;23.346;2023-11-19T09:04:59;1.93;;;1.90;;
6679;SDS011;3376;42.664;23.346;2023-11-19T09:07:25;2.67;;;2.57;;
6679;SDS011;3376;42.664;23.346;2023-11-19T09:09:52;3.10;;;2.90;;
6679;SDS011;3376;42.664;23.346;2023-11-19T09:12:19;3.63;;;3.37;;
6679;SDS011;3376;42.664;23.346;2023-11-19T09:14:46;10.97;;;5.50;;
6679;SDS011;3376;42.664;23.346;2023-11-19T09:17:14;7.83;;;7.03;;
6679;SDS011;3376;42.664;23.346;2023-11-19T09:19:42;3.80;;;3.60;;
6679;SDS011;3376;42.664;23.346;2023-11-19T09:22:10;3.43;;;3.23;;
6679;SDS011;3376;42.664;23.346;2023-11-19T09:24:37;2.93;;;2.80;;
6679;SDS011;3376;42.664;23.346;2023-11-19T09:27:04;2.43;;;2.33;;
6679;SDS011;3376;42.664;23.346;2023-11-19T09:29:31;2.60;;;2.50;;
6679;SDS011;3376;42.664;23.346;2023-11-19T09:31:58;2.60;;;2.50;;
6679;SDS011;3376;42.664;23.346;2023-11-19T09:34:25;3.93;;;3.63;;
6679;SDS011;3376;42.664;23.346;2023-11-19T09:36:53;3.57;;;3.27;;
6679;SDS011;3376;42.664;23.346;2023-11-19T09:39:21;2.93;;;2.73;;
6679;SDS011;3376;42.664;23.346;2023-11-19T09:41:48;2.20;;;2.10;;
6679;SDS011;3376;42.664;23.346;2023-11-19T09:44:15;3.87;;;3.57;;
6679;SDS011;3376;42.664;23.346;2023-11-19T09:46:43;2.67;;;2.57;;
6679;SDS011;3376;42.664;23.346;2023-11-19T09:49:11;2.53;;;2.40;;
6679;SDS011;3376;42.664;23.346;2023-11-19T09:51:39;2.40;;;2.30;;
6679;SDS011;3376;42.664;23.346;2023-11-19T09:54:07;2.93;;;2.37;;
6679;SDS011;3376;42.664;23.346;2023-11-19T09:56:36;2.50;;;2.40;;
6679;SDS011;3376;42.664;23.346;2023-11-19T09:59:05;3.47;;;2.80;;
6679;SDS011;3376;42.664;23.346;2023-11-19T10:01:32;2.87;;;2.77;;
6679;SDS011;3376;42.664;23.346;2023-11-19T10:04:01;2.80;;;2.57;;
6679;SDS011;3376;42.664;23.346;2023-11-19T10:06:28;3.00;;;2.90;;
6679;SDS011;3376;42.664;23.346;2023-11-19T10:08:55;2.70;;;2.60;;
6679;SDS011;3376;42.664;23.346;2023-11-19T10:11:22;2.60;;;2.50;;
6679;SDS011;3376;42.664;23.346;2023-11-19T10:13:51;2.40;;;2.30;;
6679;SDS011;3376;42.664;23.346;2023-11-19T10:16:19;2.43;;;2.33;;
6679;SDS011;3376;42.664;23.346;2023-11-19T10:18:46;2.17;;;2.07;;
6679;SDS011;3376;42.664;23.346;2023-11-19T10:21:14;2.20;;;2.10;;
6679;SDS011;3376;42.664;23.346;2023-11-19T10:23:48;2.23;;;2.13;;
6679;SDS011;3376;42.664;23.346;2023-11-19T10:26:17;2.83;;;2.73;;
6679;SDS011;3376;42.664;23.346;2023-11-19T10:28:45;2.47;;;2.37;;
6679;SDS011;3376;42.664;23.346;2023-11-19T10:31:14;2.10;;;2.00;;
6679;SDS011;3376;42.664;23.346;2023-11-19T10:33:41;10.70;;;2.20;;
6679;SDS011;3376;42.664;23.346;2023-11-19T10:36:10;5.80;;;2.63;;
6679;SDS011;3376;42.664;23.346;2023-11-19T10:38:37;2.50;;;2.40;;
6679;SDS011;3376;42.664;23.346;2023-11-19T10:41:04;2.67;;;2.03;;
6679;SDS011;3376;42.664;23.346;2023-11-19T10:43:31;1.90;;;1.80;;
6679;SDS011;3376;42.664;23.346;2023-11-19T10:46:09;2.57;;;2.47;;
6679;SDS011;3376;42.664;23.346;2023-11-19T10:48:38;2.20;;;2.10;;
6679;SDS011;3376;42.664;23.346;2023-11-19T10:51:06;6.10;;;1.90;;
6679;SDS011;3376;42.664;23.346;2023-11-19T10:53:33;1.87;;;1.77;;
6679;SDS011;3376;42.664;23.346;2023-11-19T10:56:04;2.60;;;2.50;;
6679;SDS011;3376;42.664;23.346;2023-11-19T10:58:37;2.53;;;2.43;;
6679;SDS011;3376;42.664;23.346;2023-11-19T11:01:09;2.43;;;2.33;;
6679;SDS011;3376;42.664;23.346;2023-11-19T11:03:42;3.00;;;2.90;;
6679;SDS011;3376;42.664;23.346;2023-11-19T11:06:11;2.97;;;2.40;;
6679;SDS011;3376;42.664;23.346;2023-11-19T11:08:39;2.23;;;2.13;;
6679;SDS011;3376;42.664;23.346;2023-11-19T11:11:07;2.33;;;2.23;;
6679;SDS011;3376;42.664;23.346;2023-11-19T11:13:35;2.07;;;1.97;;
6679;SDS011;3376;42.664;23.346;2023-11-19T11:16:08;2.10;;;2.00;;
6679;SDS011;3376;42.664;23.346;2023-11-19T11:18:36;2.53;;;2.43;;
6679;SDS011;3376;42.664;23.346;2023-11-19T11:21:05;2.53;;;2.43;;
6679;SDS011;3376;42.664;23.346;2023-11-19T11:23:50;2.23;;;2.13;;
6679;SDS011;3376;42.664;23.346;2023-11-19T11:29:35;2.37;;;2.17;;
6679;SDS011;3376;42.664;23.346;2023-11-19T11:32:08;2.17;;;1.97;;
6679;SDS011;3376;42.664;23.346;2023-11-19T11:34:49;2.80;;;2.70;;
6679;SDS011;3376;42.664;23.346;2023-11-19T11:37:29;2.83;;;2.70;;
6679;SDS011;3376;42.664;23.346;2023-11-19T11:40:00;2.63;;;2.53;;
6679;SDS011;3376;42.664;23.346;2023-11-19T11:42:31;3.53;;;2.30;;
6679;SDS011;3376;42.664;23.346;2023-11-19T11:44:58;2.37;;;2.27;;
6679;SDS011;3376;42.664;23.346;2023-11-19T11:47:29;2.80;;;2.70;;
6679;SDS011;3376;42.664;23.346;2023-11-19T11:50:34;2.50;;;2.40;;
6679;SDS011;3376;42.664;23.346;2023-11-19T11:53:19;1.87;;;1.80;;
6679;SDS011;3376;42.664;23.346;2023-11-19T11:55:53;2.20;;;2.10;;
6679;SDS011;3376;42.664;23.346;2023-11-19T11:58:21;2.70;;;2.43;;
6679;SDS011;3376;42.664;23.346;2023-11-19T12:00:52;2.40;;;2.30;;
6679;SDS011;3376;42.664;23.346;2023-11-19T12:03:20;2.03;;;1.93;;
6679;SDS011;3376;42.664;23.346;2023-11-19T12:05:48;2.23;;;2.13;;
6679;SDS011;3376;42.664;23.346;2023-11-19T12:08:19;2.37;;;2.27;;
6679;SDS011;3376;42.664;23.346;2023-11-19T12:10:51;2.40;;;2.30;;
6679;SDS011;3376;42.664;23.346;2023-11-19T12:13:19;2.50;;;2.40;;
6679;SDS011;3376;42.664;23.346;2023-11-19T12:18:38;1.87;;;1.77;;
6679;SDS011;3376;42.664;23.346;2023-11-19T12:21:06;2.10;;;2.00;;
6679;SDS011;3376;42.664;23.346;2023-11-19T12:23:36;2.53;;;2.33;;
6679;SDS011;3376;42.664;23.346;2023-11-19T12:26:34;2.40;;;2.30;;
6679;SDS011;3376;42.664;23.346;2023-11-19T12:29:02;2.70;;;2.60;;
6679;SDS011;3376;42.664;23.346;2023-11-19T12:31:31;2.27;;;2.07;;
6679;SDS011;3376;42.664;23.346;2023-11-19T12:34:04;2.63;;;2.53;;
6679;SDS011;3376;42.664;23.346;2023-11-19T12:36:37;2.87;;;2.67;;
6679;SDS011;3376;42.664;23.346;2023-11-19T12:39:11;2.50;;;2.40;;
6679;SDS011;3376;42.664;23.346;2023-11-19T12:41:52;2.10;;;2.00;;
6679;SDS011;3376;42.664;23.346;2023-11-19T12:44:19;2.50;;;2.40;;
6679;SDS011;3376;42.664;23.346;2023-11-19T12:46:46;5.27;;;4.60;;
6679;SDS011;3376;42.664;23.346;2023-11-19T12:49:26;2.83;;;2.73;;
6679;SDS011;3376;42.664;23.346;2023-11-19T12:51:53;3.03;;;2.77;;
6679;SDS011;3376;42.664;23.346;2023-11-19T12:54:30;2.20;;;2.10;;
6679;SDS011;3376;42.664;23.346;2023-11-19T12:56:58;2.63;;;2.43;;
6679;SDS011;3376;42.664;23.346;2023-11-19T12:59:25;3.17;;;2.87;;
6679;SDS011;3376;42.664;23.346;2023-11-19T13:01:53;2.63;;;2.43;;
6679;SDS011;3376;42.664;23.346;2023-11-19T13:04:21;2.53;;;2.43;;
6679;SDS011;3376;42.664;23.346;2023-11-19T13:06:49;2.50;;;2.30;;
6679;SDS011;3376;42.664;23.346;2023-11-19T13:09:24;2.77;;;2.67;;
6679;SDS011;3376;42.664;23.346;2023-11-19T13:11:52;2.80;;;2.70;;
6679;SDS011;3376;42.664;23.346;2023-11-19T13:14:19;2.50;;;2.40;;
6679;SDS011;3376;42.664;23.346;2023-11-19T13:16:47;2.40;;;2.30;;
6679;SDS011;3376;42.664;23.346;2023-11-19T13:19:14;2.60;;;2.40;;
6679;SDS011;3376;42.664;23.346;2023-11-19T13:21:41;2.70;;;2.60;;
6679;SDS011;3376;42.664;23.346;2023-11-19T13:24:11;2.90;;;2.80;;
6679;SDS011;3376;42.664;23.346;2023-11-19T13:26:39;2.70;;;2.60;;
6679;SDS011;3376;42.664;23.346;2023-11-19T13:29:06;3.77;;;3.47;;
6679;SDS011;3376;42.664;23.346;2023-11-19T13:31:33;3.20;;;3.07;;
6679;SDS011;3376;42.664;23.346;2023-11-19T13:34:00;3.30;;;3.10;;
6679;SDS011;3376;42.664;23.346;2023-11-19T13:36:27;3.10;;;3.00;;
6679;SDS011;3376;42.664;23.346;2023-11-19T13:38:54;3.00;;;2.80;;
6679;SDS011;3376;42.664;23.346;2023-11-19T13:41:24;3.10;;;3.00;;
6679;SDS011;3376;42.664;23.346;2023-11-19T13:43:52;2.80;;;2.60;;
6679;SDS011;3376;42.664;23.346;2023-11-19T13:46:20;2.87;;;2.77;;
6679;SDS011;3376;42.664;23.346;2023-11-19T13:48:47;3.23;;;3.03;;
6679;SDS011;3376;42.664;23.346;2023-11-19T13:51:15;2.77;;;2.67;;
6679;SDS011;3376;42.664;23.346;2023-11-19T13:53:41;2.60;;;2.50;;
6679;SDS011;3376;42.664;23.346;2023-11-19T13:56:09;3.60;;;3.30;;
6679;SDS011;3376;42.664;23.346;2023-11-19T13:58:36;2.70;;;2.60;;
6679;SDS011;3376;42.664;23.346;2023-11-19T14:01:05;2.37;;;2.27;;
6679;SDS011;3376;42.664;23.346;2023-11-19T14:03:32;2.50;;;2.40;;
6679;SDS011;3376;42.664;23.346;2023-11-19T14:05:59;2.90;;;2.70;;
6679;SDS011;3376;42.664;23.346;2023-11-19T14:08:27;2.83;;;2.73;;
6679;SDS011;3376;42.664;23.346;2023-11-19T14:10:54;2.47;;;2.37;;
6679;SDS011;3376;42.664;23.346;2023-11-19T14:13:21;3.27;;;3.07;;
6679;SDS011;3376;42.664;23.346;2023-11-19T14:15:49;2.90;;;2.70;;
6679;SDS011;3376;42.664;23.346;2023-11-19T14:18:17;2.80;;;2.60;;
6679;SDS011;3376;42.664;23.346;2023-11-19T14:20:44;2.70;;;2.60;;
6679;SDS011;3376;42.664;23.346;2023-11-19T14:23:11;2.87;;;2.77;;
6679;SDS011;3376;42.664;23.346;2023-11-19T14:25:38;3.17;;;3.07;;
6679;SDS011;3376;42.664;23.346;2023-11-19T14:28:05;2.30;;;2.20;;
6679;SDS011;3376;42.664;23.346;2023-11-19T14:30:32;2.70;;;2.60;;
6679;SDS011;3376;42.664;23.346;2023-11-19T14:33:00;2.90;;;2.80;;
6679;SDS011;3376;42.664;23.346;2023-11-19T14:35:28;3.20;;;3.00;;
6679;SDS011;3376;42.664;23.346;2023-11-19T14:37:57;2.87;;;2.77;;
6679;SDS011;3376;42.664;23.346;2023-11-19T14:40:24;3.47;;;3.27;;
6679;SDS011;3376;42.664;23.346;2023-11-19T14:42:51;3.37;;;3.20;;
6679;SDS011;3376;42.664;23.346;2023-11-19T14:45:18;28.67;;;4.70;;
6679;SDS011;3376;42.664;23.346;2023-11-19T14:47:45;3.23;;;3.10;;
6679;SDS011;3376;42.664;23.346;2023-11-19T14:50:12;3.23;;;3.13;;
6679;SDS011;3376;42.664;23.346;2023-11-19T14:52:40;3.60;;;3.40;;
6679;SDS011;3376;42.664;23.346;2023-11-19T14:55:08;3.67;;;3.47;;
6679;SDS011;3376;42.664;23.346;2023-11-19T14:57:36;4.50;;;4.20;;
6679;SDS011;3376;42.664;23.346;2023-11-19T15:00:05;4.07;;;3.87;;
6679;SDS011;3376;42.664;23.346;2023-11-19T15:02:38;4.60;;;4.20;;
6679;SDS011;3376;42.664;23.346;2023-11-19T15:05:06;4.17;;;3.97;;
6679;SDS011;3376;42.664;23.346;2023-11-19T15:07:34;3.77;;;3.57;;
6679;SDS011;3376;42.664;23.346;2023-11-19T15:10:03;4.53;;;4.30;;
6679;SDS011;3376;42.664;23.346;2023-11-19T15:12:34;3.87;;;3.57;;